Time;durP1;ratioP1;P1;durP2;ratioP2;P2;SDS_P1;SDS_P2;PMS_P1;PMS_P2;Temp;Humidity;BMP_temperature;BMP_pressure;BME280_temperature;BME280_humidity;BME280_pressure;Samples;Min_cycle;Max_cycle;Signal;HPM_P1;HPM_P2
2023/06/09 00:01:53;;;;;;;3.85;3.65;;;;;;;-144.30;73.15;85124.09;5130007;28;20208;-51
2023/06/09 00:04:23;;;;;;;4.40;3.75;;;;;;;-144.30;72.93;85124.09;5130090;27;20280;-50
2023/06/09 00:06:51;;;;;;;4.57;4.10;;;;;;;-144.30;73.13;85108.19;5130027;28;20267;-51
2023/06/09 00:09:18;;;;;;;5.65;3.83;;;;;;;-144.30;73.22;85134.03;5130208;27;20616;-50
2023/06/09 00:11:46;;;;;;;4.32;3.83;;;;;;;-144.30;73.19;85126.09;5130163;28;20667;-51
2023/06/09 00:14:13;;;;;;;3.88;3.65;;;;;;;-144.30;73.48;85130.06;5129897;28;20246;-55
2023/06/09 00:16:46;;;;;;;4.30;3.90;;;;;;;-144.30;73.34;85141.97;5129957;28;20197;-56
2023/06/09 00:19:13;;;;;;;4.53;4.13;;;;;;;-144.30;73.14;85155.91;5130150;28;20695;-55
2023/06/09 00:21:44;;;;;;;5.22;4.25;;;;;;;-144.30;73.22;85138.00;5129968;27;20605;-55
2023/06/09 00:24:11;;;;;;;6.40;4.47;;;;;;;-144.30;73.24;85130.06;5130018;27;20300;-55
2023/06/09 00:26:38;;;;;;;5.13;4.30;;;;;;;-144.30;73.39;85092.28;5129726;27;20194;-56
2023/06/09 00:29:05;;;;;;;4.63;4.32;;;;;;;-144.30;73.15;85122.09;5130001;27;20273;-55
2023/06/09 00:31:32;;;;;;;6.82;4.55;;;;;;;-144.30;72.64;85086.31;5133559;27;20190;-55
2023/06/09 00:33:58;;;;;;;5.30;4.30;;;;;;;-144.30;72.83;85110.19;5134125;27;20194;-56
2023/06/09 00:36:25;;;;;;;5.22;4.78;;;;;;;-144.30;72.55;85098.25;5133924;27;20194;-56
2023/06/09 00:38:54;;;;;;;4.53;4.20;;;;;;;-144.30;72.39;85110.19;5133635;27;20210;-56
2023/06/09 00:41:20;;;;;;;8.60;4.53;;;;;;;-144.30;72.50;85138.00;5133676;27;20205;-55
2023/06/09 00:43:48;;;;;;;5.72;4.53;;;;;;;-144.30;72.48;85090.31;5133786;27;20202;-56
2023/06/09 00:46:16;;;;;;;7.15;4.68;;;;;;;-144.30;72.65;85153.91;5133546;27;20246;-55
2023/06/09 00:48:43;;;;;;;4.78;4.47;;;;;;;-144.30;72.95;85138.00;5133587;27;20198;-56
2023/06/09 00:51:10;;;;;;;4.95;4.55;;;;;;;-144.30;73.10;85094.28;5133746;27;20387;-51
2023/06/09 00:53:37;;;;;;;7.03;4.60;;;;;;;-144.30;73.18;85128.06;5130917;27;20198;-50
2023/06/09 00:56:05;;;;;;;5.43;4.85;;;;;;;-144.30;72.68;85112.16;5133594;27;20189;-51
2023/06/09 00:58:33;;;;;;;7.70;4.65;;;;;;;-144.30;72.72;85074.41;5133444;27;20631;-49
2023/06/09 01:01:00;;;;;;;5.85;5.05;;;;;;;-144.30;73.06;85110.19;5133598;27;20575;-51
2023/06/09 01:03:28;;;;;;;8.50;5.63;;;;;;;-144.30;73.29;85124.09;5133408;27;20209;-50
2023/06/09 01:06:03;;;;;;;5.15;4.75;;;;;;;-144.30;73.68;85104.22;5133294;27;20194;-53
2023/06/09 01:08:35;;;;;;;6.53;5.03;;;;;;;-144.30;74.81;85161.88;5133217;27;20200;-51
2023/06/09 01:11:13;;;;;;;6.15;5.13;;;;;;;-144.30;75.04;85140.00;5131179;27;20621;-51
2023/06/09 01:13:49;;;;;;;6.10;5.60;;;;;;;-144.30;75.36;85173.78;5130905;27;20197;-52
2023/06/09 01:16:22;;;;;;;5.80;5.20;;;;;;;-144.30;75.50;85157.88;5130420;27;20212;-52
2023/06/09 01:18:50;;;;;;;6.13;5.63;;;;;;;-144.30;76.05;85155.91;5132549;27;20198;-56
2023/06/09 01:21:35;;;;;;;6.30;5.87;;;;;;;-144.30;76.25;85179.75;5130395;27;20194;-56
2023/06/09 01:24:14;;;;;;;7.87;6.17;;;;;;;-144.30;76.97;85173.78;5131028;27;20186;-55
2023/06/09 01:26:43;;;;;;;9.52;6.88;;;;;;;-144.30;77.17;85203.59;5130781;27;20197;-52
2023/06/09 01:29:13;;;;;;;6.03;5.43;;;;;;;-144.30;76.95;85205.59;5132867;27;20190;-52
2023/06/09 01:31:41;;;;;;;9.18;5.90;;;;;;;-144.30;77.09;85201.63;5131026;27;20198;-52
2023/06/09 01:34:08;;;;;;;7.40;5.90;;;;;;;-144.30;77.37;85098.25;5133277;27;20689;-51
2023/06/09 01:36:36;;;;;;;6.17;5.63;;;;;;;-144.30;77.57;85136.03;5132689;27;20647;-51
2023/06/09 01:39:03;;;;;;;6.80;5.85;;;;;;;-144.30;77.50;85179.75;5132671;27;20217;-52
2023/06/09 01:41:30;;;;;;;5.93;5.53;;;;;;;-144.30;77.50;85207.59;5131490;27;20596;-51
2023/06/09 01:43:59;;;;;;;6.25;5.28;;;;;;;-144.30;77.84;85189.69;5130207;27;20190;-52
2023/06/09 01:46:26;;;;;;;6.43;5.80;;;;;;;-144.30;77.68;85173.78;5132179;27;20229;-51
2023/06/09 01:49:04;;;;;;;6.10;5.50;;;;;;;-144.30;77.61;85195.66;5132576;27;20688;-49
2023/06/09 01:51:37;;;;;;;9.13;5.70;;;;;;;-144.30;77.75;85187.69;5132256;27;20194;-50
2023/06/09 01:54:10;;;;;;;6.03;5.43;;;;;;;-144.30;78.17;85193.66;5132440;27;20186;-50
2023/06/09 01:56:43;;;;;;;6.05;5.50;;;;;;;-144.30;77.97;85181.75;5129827;27;20186;-52
2023/06/09 01:59:16;;;;;;;6.97;6.00;;;;;;;-144.30;77.89;85205.59;5132577;27;20218;-52
2023/06/09 02:01:46;;;;;;;7.80;5.43;;;;;;;-144.30;77.36;85227.47;5130550;27;20204;-51
2023/06/09 02:04:14;;;;;;;7.93;5.13;;;;;;;-144.30;77.10;85183.72;5132424;27;20190;-51
2023/06/09 02:06:42;;;;;;;5.03;4.63;;;;;;;-144.30;76.31;85219.50;5132212;27;20197;-57
2023/06/09 02:09:10;;;;;;;5.15;4.75;;;;;;;-144.30;74.89;85197.66;5132484;27;20193;-56
2023/06/09 02:11:37;;;;;;;7.00;5.20;;;;;;;-144.30;73.62;85213.53;5131964;27;20197;-55
2023/06/09 02:14:04;;;;;;;5.57;5.17;;;;;;;-144.30;72.49;85183.72;5132121;27;20193;-56
2023/06/09 02:16:32;;;;;;;5.75;4.70;;;;;;;-144.30;72.25;85187.69;5132307;27;20197;-56
2023/06/09 02:19:00;;;;;;;7.60;5.90;;;;;;;-144.30;71.93;85185.72;5129147;27;20193;-56
2023/06/09 02:21:27;;;;;;;8.73;4.78;;;;;;;-144.30;71.95;85205.59;5131771;27;20197;-56
2023/06/09 02:23:54;;;;;;;5.57;4.40;;;;;;;-144.30;72.42;85213.53;5132087;27;20192;-56
2023/06/09 02:26:21;;;;;;;7.47;5.28;;;;;;;-144.30;71.95;85209.56;5132011;27;20284;-56
2023/06/09 02:28:48;;;;;;;5.90;5.27;;;;;;;-144.30;71.55;85257.28;5131286;27;20201;-56
2023/06/09 02:31:15;;;;;;;6.53;4.78;;;;;;;-144.30;71.30;85229.44;5120735;27;20283;-56
2023/06/09 02:33:44;;;;;;;5.78;5.28;;;;;;;-144.30;71.09;85249.34;5110774;28;20269;-56
2023/06/09 02:36:13;;;;;;;6.13;5.40;;;;;;;-144.30;71.42;85205.59;5111184;27;20225;-57
2023/06/09 02:38:40;;;;;;;5.13;4.67;;;;;;;-144.30;71.45;85213.53;5110892;28;20218;-56
2023/06/09 02:41:07;;;;;;;6.43;4.80;;;;;;;-144.30;71.80;85233.44;5111289;27;20317;-56
2023/06/09 02:43:34;;;;;;;5.68;5.22;;;;;;;-144.30;71.55;85249.34;5110167;28;20310;-57
2023/06/09 02:46:01;;;;;;;6.15;5.72;;;;;;;-144.30;71.63;85215.53;5110741;27;20215;-56
2023/06/09 02:48:28;;;;;;;6.37;5.77;;;;;;;-144.30;72.26;85418.31;5110465;28;20936;-56
2023/06/09 02:50:56;;;;;;;6.73;6.13;;;;;;;-144.30;72.89;85221.50;5110398;27;20218;-56
2023/06/09 02:53:23;;;;;;;6.15;5.63;;;;;;;-144.30;72.83;85241.38;5110694;28;20223;-52
2023/06/09 02:55:50;;;;;;;5.72;5.28;;;;;;;-144.30;72.93;85229.44;5110465;27;20215;-52
2023/06/09 02:58:17;;;;;;;6.33;5.73;;;;;;;-144.30;73.27;85229.44;5110164;28;20612;-51
2023/06/09 03:00:44;;;;;;;6.50;5.90;;;;;;;-144.30;73.41;85237.41;5126906;27;20229;-51
2023/06/09 03:03:12;;;;;;;7.38;5.93;;;;;;;-144.30;73.13;85213.53;5131326;27;20687;-52
2023/06/09 03:05:44;;;;;;;11.52;6.47;;;;;;;-144.30;73.46;85217.53;5130932;27;20248;-56
2023/06/09 03:08:12;;;;;;;7.43;6.72;;;;;;;-144.30;74.22;85259.28;5131652;27;20240;-56
2023/06/09 03:10:39;;;;;;;7.47;6.20;;;;;;;-144.30;73.94;85247.34;5130059;27;20229;-56
2023/06/09 03:13:06;;;;;;;8.40;6.22;;;;;;;-144.30;73.46;85209.56;5129547;27;20226;-56
2023/06/09 03:15:33;;;;;;;12.20;6.10;;;;;;;-144.30;73.34;85219.50;5130259;27;20224;-51
2023/06/09 03:18:00;;;;;;;6.83;6.20;;;;;;;-144.30;73.49;85237.41;5130692;27;20221;-52
2023/06/09 03:20:27;;;;;;;9.57;6.50;;;;;;;-144.30;73.33;85231.44;5130559;27;20236;-51
2023/06/09 03:22:54;;;;;;;6.10;5.47;;;;;;;-144.30;73.61;85193.66;5130756;27;20214;-51
2023/06/09 03:25:25;;;;;;;6.37;5.97;;;;;;;-144.30;73.44;85193.66;5130756;27;20214;-52
2023/06/09 03:27:53;;;;;;;7.55;6.70;;;;;;;-144.30;72.97;85199.63;5130444;27;20290;-52
2023/06/09 03:30:20;;;;;;;7.22;6.57;;;;;;;-144.30;72.46;85181.75;5130291;27;20222;-52
2023/06/09 03:32:47;;;;;;;6.63;6.13;;;;;;;-144.30;71.74;85141.97;5129855;27;20610;-52
2023/06/09 03:35:15;;;;;;;7.10;6.50;;;;;;;-144.30;71.48;85201.63;5130326;27;20220;-52
2023/06/09 03:37:42;;;;;;;9.30;6.80;;;;;;;-144.30;71.47;85114.16;5130328;27;20218;-51
2023/06/09 03:40:10;;;;;;;9.65;8.65;;;;;;;-144.30;70.70;85171.81;5129942;27;20218;-51
2023/06/09 03:42:38;;;;;;;8.23;7.43;;;;;;;-144.30;69.99;85173.78;5129276;27;20253;-53
2023/06/09 03:45:06;;;;;;;12.02;7.65;;;;;;;-144.30;70.04;85145.97;5130595;27;20717;-52
2023/06/09 03:47:32;;;;;;;9.95;7.53;;;;;;;-144.30;69.50;85141.97;5130076;27;20659;-53
2023/06/09 03:49:59;;;;;;;7.75;7.13;;;;;;;-144.30;69.32;85102.22;5130283;27;20214;-52
2023/06/09 03:52:27;;;;;;;12.30;7.35;;;;;;;-144.30;66.85;84980.97;5129922;27;20222;-52
2023/06/09 03:54:55;;;;;;;9.05;6.30;;;;;;;-144.30;62.85;84891.53;5130126;27;20224;-52
2023/06/09 03:57:21;;;;;;;8.00;5.90;;;;;;;-144.30;59.61;84784.19;5129812;27;20297;-50
2023/06/09 03:59:50;;;;;;;9.07;6.45;;;;;;;-144.30;56.84;84678.84;5129891;27;20228;-51
2023/06/09 04:02:17;;;;;;;9.18;5.90;;;;;;;-144.30;53.24;84505.94;5130482;27;20291;-51
2023/06/09 04:04:45;;;;;;;6.70;6.20;;;;;;;-144.30;48.60;84315.16;5129448;27;20213;-51
2023/06/09 04:07:14;;;;;;;6.70;6.05;;;;;;;-144.30;46.28;84098.56;5130194;27;20308;-51
2023/06/09 04:09:41;;;;;;;8.63;6.50;;;;;;;-144.30;43.09;83941.56;5129641;27;20220;-52
2023/06/09 04:12:09;;;;;;;8.30;5.97;;;;;;;-144.30;40.92;83723.00;5130184;27;20226;-51
2023/06/09 04:14:36;;;;;;;6.95;5.47;;;;;;;-144.30;39.85;83655.44;5129205;27;20763;-51
2023/06/09 04:17:05;;;;;;;9.38;5.55;;;;;;;-144.30;37.77;83403.09;5127872;27;20332;-52
2023/06/09 04:19:32;;;;;;;6.80;5.85;;;;;;;-144.30;37.55;83397.16;5128297;28;20262;-54
2023/06/09 04:22:04;;;;;;;6.30;5.70;;;;;;;-144.30;37.18;83329.59;5129767;27;20306;-52
2023/06/09 04:24:31;;;;;;;5.80;5.35;;;;;;;-144.30;36.26;83242.19;5129492;27;20626;-51
2023/06/09 04:26:58;;;;;;;9.27;5.25;;;;;;;-144.30;34.98;82991.88;5129669;27;20229;-52
2023/06/09 04:29:26;;;;;;;6.30;5.63;;;;;;;-144.30;34.12;82836.91;5129366;27;20222;-53
2023/06/09 04:31:58;;;;;;;6.78;6.07;;;;;;;-144.30;33.02;82574.72;5129646;27;20210;-51
2023/06/09 04:34:27;;;;;;;7.53;6.15;;;;;;;-144.30;32.50;82507.19;5129627;27;20218;-52
2023/06/09 04:36:55;;;;;;;6.40;5.80;;;;;;;-144.30;31.71;82435.66;5129180;27;20606;-56
2023/06/09 04:39:24;;;;;;;10.63;5.50;;;;;;;-144.30;31.13;82340.34;5130149;27;20222;-55
2023/06/09 04:41:52;;;;;;;6.13;5.68;;;;;;;-144.30;31.29;82151.66;5126785;27;20233;-56
2023/06/09 04:44:20;;;;;;;6.32;5.70;;;;;;;-144.30;30.98;82308.56;5129593;27;20225;-56
2023/06/09 04:46:49;;;;;;;8.38;5.30;;;;;;;-144.30;30.94;82223.16;5128776;27;20257;-57
2023/06/09 04:49:16;;;;;;;5.07;4.78;;;;;;;-144.30;30.96;82348.28;5129730;27;20275;-51
2023/06/09 04:51:48;;;;;;;6.22;5.47;;;;;;;-144.30;31.26;82443.63;5129032;27;20229;-53
2023/06/09 04:54:15;;;;;;;5.45;5.05;;;;;;;-144.30;31.81;82503.22;5129503;27;20237;-54
2023/06/09 04:56:43;;;;;;;5.40;5.00;;;;;;;-144.30;31.71;82469.44;5123932;27;20677;-53
2023/06/09 04:59:11;;;;;;;23.55;5.40;;;;;;;-144.30;31.42;82393.97;5125983;28;20278;-52
2023/06/09 05:01:38;;;;;;;5.22;4.72;;;;;;;-144.30;31.02;82219.19;5128712;27;20225;-54
2023/06/09 05:04:06;;;;;;;8.15;4.88;;;;;;;-144.30;30.14;82187.41;5129242;27;20270;-53
2023/06/09 05:06:33;;;;;;;6.85;4.65;;;;;;;-144.30;30.51;82205.28;5128771;27;20226;-53
2023/06/09 05:09:02;;;;;;;5.90;4.82;;;;;;;-144.30;30.39;82102.00;5129805;27;20226;-51
2023/06/09 05:11:29;;;;;;;7.38;4.80;;;;;;;-144.30;30.43;82165.56;5115342;27;20221;-53
2023/06/09 05:13:56;;;;;;;4.93;4.35;;;;;;;-144.30;29.96;82034.47;5108352;27;20226;-53
2023/06/09 05:16:25;;;;;;;5.53;4.55;;;;;;;-144.30;30.67;82167.53;5109295;28;20719;-53
2023/06/09 05:18:52;;;;;;;5.10;4.68;;;;;;;-144.30;30.45;82161.59;5112856;27;20780;-53
2023/06/09 05:21:21;;;;;;;6.70;4.65;;;;;;;-144.30;30.74;82235.06;5128253;27;20255;-56
2023/06/09 05:23:48;;;;;;;7.50;4.93;;;;;;;-144.30;30.57;82133.78;5132779;27;20214;-56
2023/06/09 05:26:16;;;;;;;6.90;4.60;;;;;;;-144.30;30.40;82115.91;5133003;27;20222;-58
2023/06/09 05:28:43;;;;;;;5.88;5.40;;;;;;;-144.30;30.89;82193.38;5131940;27;20226;-55
2023/06/09 05:31:12;;;;;;;5.15;4.68;;;;;;;-144.30;30.84;82286.72;5132249;27;20210;-56
2023/06/09 05:33:39;;;;;;;6.57;4.88;;;;;;;-144.30;31.01;82235.06;5132050;27;20621;-56
2023/06/09 05:36:08;;;;;;;6.47;4.85;;;;;;;-144.30;30.62;82201.31;5132776;27;20224;-56
2023/06/09 05:38:34;;;;;;;6.80;4.18;;;;;;;-144.30;30.52;82141.72;5132303;27;20266;-56
2023/06/09 05:41:01;;;;;;;6.40;4.35;;;;;;;-144.30;30.69;82191.38;5132331;27;20228;-57
2023/06/09 05:43:30;;;;;;;8.32;5.10;;;;;;;-144.30;30.74;82181.44;5131892;27;20225;-56
2023/06/09 05:45:58;;;;;;;8.35;4.35;;;;;;;-144.30;30.53;82096.03;5132573;27;20233;-57
2023/06/09 05:48:25;;;;;;;5.38;4.95;;;;;;;-144.30;30.66;82189.38;5132499;27;20232;-57
2023/06/09 05:50:52;;;;;;;6.82;4.97;;;;;;;-144.30;31.03;82348.28;5132499;27;20711;-56
2023/06/09 05:53:19;;;;;;;11.20;4.85;;;;;;;-144.30;30.98;82241.03;5132568;27;20214;-56
2023/06/09 05:55:46;;;;;;;5.97;4.57;;;;;;;-144.30;30.55;82102.00;5132480;27;20218;-59
2023/06/09 05:58:13;;;;;;;5.18;4.65;;;;;;;-144.30;30.38;82121.88;5130848;27;20266;-53
2023/06/09 06:00:41;;;;;;;7.45;5.90;;;;;;;-144.30;30.57;82155.63;5131962;27;20233;-53
2023/06/09 06:03:10;;;;;;;5.57;4.97;;;;;;;-144.30;30.31;81970.94;5132044;27;20685;-52
2023/06/09 06:05:37;;;;;;;5.47;5.07;;;;;;;-144.30;31.15;82278.75;5131877;27;20229;-52
2023/06/09 06:08:05;;;;;;;7.40;5.15;;;;;;;-144.30;31.59;82290.69;5131944;27;20265;-52
2023/06/09 06:10:32;;;;;;;9.30;5.28;;;;;;;-144.30;31.31;82298.63;5131756;27;20214;-52
2023/06/09 06:13:02;;;;;;;5.55;4.90;;;;;;;-144.30;31.84;82451.56;5131229;27;20221;-57
2023/06/09 06:15:29;;;;;;;5.45;4.95;;;;;;;-144.30;31.93;82489.31;5132079;27;20607;-56
2023/06/09 06:17:57;;;;;;;5.97;5.22;;;;;;;-144.30;32.27;82523.06;5132131;27;20225;-56
2023/06/09 06:20:24;;;;;;;6.50;5.03;;;;;;;-144.30;31.92;82433.69;5131912;27;20586;-57
2023/06/09 06:22:51;;;;;;;11.57;5.25;;;;;;;-144.30;31.82;82449.56;5131479;27;20221;-55
2023/06/09 06:25:18;;;;;;;5.80;4.43;;;;;;;-144.30;32.46;82662.09;5131704;27;20222;-55
2023/06/09 06:27:45;;;;;;;5.40;4.90;;;;;;;-144.30;32.87;82683.97;5130562;27;20609;-56
2023/06/09 06:30:13;;;;;;;17.73;4.88;;;;;;;-144.30;33.07;82699.84;5131970;27;20546;-56
2023/06/09 06:32:50;;;;;;;7.28;4.63;;;;;;;-144.30;32.27;82606.50;5131509;27;20370;-55
2023/06/09 06:35:24;;;;;;;5.45;4.30;;;;;;;-144.30;32.44;82646.22;5131723;27;20213;-50
2023/06/09 06:37:51;;;;;;;5.50;4.30;;;;;;;-144.30;33.42;82896.50;5131764;27;21270;-52
2023/06/09 06:40:18;;;;;;;5.50;4.70;;;;;;;-144.30;34.30;82989.88;5131436;27;20221;-50
2023/06/09 06:42:45;;;;;;;9.85;5.35;;;;;;;-144.30;34.60;82970.00;5130663;27;20222;-51
2023/06/09 06:45:12;;;;;;;5.80;4.82;;;;;;;-144.30;34.61;82981.94;5131422;27;20273;-51
2023/06/09 06:47:41;;;;;;;5.65;4.75;;;;;;;-144.30;34.62;82872.66;5130756;27;20233;-52
2023/06/09 06:50:09;;;;;;;5.70;4.43;;;;;;;-144.30;34.40;82940.22;5130637;27;20286;-52
2023/06/09 06:52:37;;;;;;;5.03;4.68;;;;;;;-144.30;33.98;82900.47;5129943;27;20313;-50
2023/06/09 06:55:07;;;;;;;8.30;4.72;;;;;;;-144.30;34.18;82940.22;5130930;27;20213;-51
2023/06/09 06:57:34;;;;;;;5.20;4.57;;;;;;;-144.30;34.01;82832.94;5130446;27;20318;-51
2023/06/09 07:00:06;;;;;;;13.73;5.53;;;;;;;-144.30;33.65;82838.91;5131275;27;20217;-50
2023/06/09 07:02:33;;;;;;;10.18;4.63;;;;;;;-144.30;33.60;82787.25;5130436;27;20218;-51
2023/06/09 07:05:00;;;;;;;7.05;4.82;;;;;;;-144.30;33.79;82828.97;5131447;27;20240;-51
2023/06/09 07:07:27;;;;;;;6.75;4.53;;;;;;;-144.30;33.24;82761.44;5130998;27;20227;-53
2023/06/09 07:09:55;;;;;;;4.65;4.32;;;;;;;-144.30;33.22;82674.03;5130918;27;20214;-56
2023/06/09 07:12:22;;;;;;;5.15;4.40;;;;;;;-144.30;32.31;82614.44;5130333;27;20974;-52
2023/06/09 07:14:49;;;;;;;9.13;4.88;;;;;;;-144.30;32.39;82626.34;5130703;27;20222;-52
2023/06/09 07:17:16;;;;;;;6.18;5.57;;;;;;;-144.30;31.97;82594.56;5130778;27;20218;-51
2023/06/09 07:19:43;;;;;;;4.72;4.30;;;;;;;-144.30;32.49;82674.03;5130612;27;20213;-51
2023/06/09 07:22:10;;;;;;;6.18;4.20;;;;;;;-144.30;32.15;82548.88;5129452;27;20218;-51
2023/06/09 07:24:37;;;;;;;5.47;4.70;;;;;;;-144.30;31.93;82542.94;5130507;27;20222;-52
2023/06/09 07:27:07;;;;;;;5.85;5.18;;;;;;;-144.30;32.08;82654.16;5130216;27;20225;-52
2023/06/09 07:29:35;;;;;;;4.60;4.30;;;;;;;-144.30;32.41;82701.84;5130278;27;20719;-52
2023/06/09 07:32:02;;;;;;;4.93;4.53;;;;;;;-144.30;32.45;82606.50;5130714;27;20380;-52
2023/06/09 07:34:31;;;;;;;7.35;4.88;;;;;;;-144.30;32.34;82674.03;5130594;27;20759;-53
2023/06/09 07:36:59;;;;;;;5.65;5.15;;;;;;;-144.30;32.51;82709.78;5130595;27;20312;-53
2023/06/09 07:39:26;;;;;;;5.15;4.65;;;;;;;-144.30;32.19;82644.22;5129666;27;20214;-49
2023/06/09 07:41:53;;;;;;;6.53;6.00;;;;;;;-144.30;32.15;82638.28;5130032;27;20225;-53
2023/06/09 07:44:21;;;;;;;10.07;4.70;;;;;;;-144.30;32.42;82554.84;5130245;27;20228;-52
2023/06/09 07:46:49;;;;;;;8.95;5.28;;;;;;;-144.30;32.10;82507.19;5130157;27;20256;-52
2023/06/09 07:49:16;;;;;;;5.95;4.80;;;;;;;-144.30;31.63;82471.44;5130630;27;20270;-51
2023/06/09 07:51:46;;;;;;;8.68;4.60;;;;;;;-144.30;31.01;82443.63;5130159;27;20253;-51
2023/06/09 07:54:13;;;;;;;7.13;4.57;;;;;;;-144.30;31.10;82455.53;5130073;27;20646;-50
2023/06/09 07:56:40;;;;;;;11.38;4.60;;;;;;;-144.30;30.84;82318.50;5129568;27;20213;-52
2023/06/09 07:59:06;;;;;;;9.50;7.30;;;;;;;-144.30;30.47;82211.25;5130218;27;20221;-52
2023/06/09 08:01:37;;;;;;;9.05;6.88;;;;;;;-144.30;30.15;82123.84;5130113;27;20278;-52
2023/06/09 08:04:04;;;;;;;5.90;5.22;;;;;;;-144.30;30.50;82145.69;5130190;27;20733;-53
2023/06/09 08:06:33;;;;;;;8.23;4.75;;;;;;;-144.30;30.41;82245.00;5129230;27;20226;-52
2023/06/09 08:09:00;;;;;;;5.40;4.65;;;;;;;-144.30;30.06;82197.34;5130259;27;20230;-54
2023/06/09 08:11:27;;;;;;;7.35;4.78;;;;;;;-144.30;29.97;82161.59;5130107;27;20222;-54
2023/06/09 08:13:54;;;;;;;15.23;4.68;;;;;;;-144.30;29.85;82119.88;5130400;27;20218;-56
2023/06/09 08:16:21;;;;;;;8.07;4.03;;;;;;;-144.30;29.78;82082.13;5130240;27;20267;-55
2023/06/09 08:18:49;;;;;;;4.30;3.90;;;;;;;-144.30;29.33;81955.03;5129119;27;20221;-55
2023/06/09 08:21:16;;;;;;;5.22;4.82;;;;;;;-144.30;29.10;81885.53;5129591;27;20591;-55
2023/06/09 08:23:43;;;;;;;6.93;4.35;;;;;;;-144.30;28.68;81768.38;5129787;27;20313;-55
2023/06/09 08:26:10;;;;;;;9.30;8.02;;;;;;;-144.30;29.11;81962.97;5129310;27;20282;-55
2023/06/09 08:28:38;;;;;;;7.78;4.82;;;;;;;-144.30;29.41;81937.16;5130090;27;20269;-55
2023/06/09 08:31:05;;;;;;;8.40;5.80;;;;;;;-144.30;29.34;82098.03;5130239;27;20589;-56
2023/06/09 08:33:33;;;;;;;4.57;4.28;;;;;;;-144.30;29.15;82121.88;5129336;27;20714;-54
2023/06/09 08:36:03;;;;;;;5.97;4.93;;;;;;;-144.30;29.48;82195.34;5130116;27;20694;-54
2023/06/09 08:38:32;;;;;;;6.85;4.40;;;;;;;-144.30;29.87;82127.81;5129260;27;20257;-55
2023/06/09 08:41:10;;;;;;;5.97;5.10;;;;;;;-144.30;29.97;82221.16;5129347;27;20214;-54
2023/06/09 08:43:37;;;;;;;9.30;4.38;;;;;;;-144.30;30.29;82391.97;5129876;27;20217;-56
2023/06/09 08:46:06;;;;;;;5.30;4.80;;;;;;;-144.30;30.86;82403.91;5129926;27;20523;-52
2023/06/09 08:48:37;;;;;;;8.02;4.93;;;;;;;-144.30;31.12;82503.22;5129848;27;20222;-51
2023/06/09 08:51:05;;;;;;;5.63;4.57;;;;;;;-144.30;31.10;82622.38;5132222;27;20217;-52
2023/06/09 08:53:33;;;;;;;7.68;4.63;;;;;;;-144.30;31.49;82634.31;5133546;27;20711;-51
2023/06/09 08:56:01;;;;;;;7.82;5.28;;;;;;;-144.30;31.86;82727.66;5133059;27;20225;-54
2023/06/09 08:58:28;;;;;;;7.75;5.00;;;;;;;-144.30;32.09;82799.19;5133484;27;20224;-54
2023/06/09 09:00:55;;;;;;;6.57;5.03;;;;;;;-144.30;32.65;82813.06;5133613;27;20304;-55
2023/06/09 09:03:23;;;;;;;10.15;5.40;;;;;;;-144.30;32.78;82767.38;5133504;27;20225;-55
2023/06/09 09:05:50;;;;;;;11.20;5.35;;;;;;;-144.30;32.49;82715.75;5132063;27;20316;-55
2023/06/09 09:08:20;;;;;;;9.80;5.00;;;;;;;-144.30;32.68;82737.59;5132267;27;20218;-55
2023/06/09 09:10:47;;;;;;;8.73;5.25;;;;;;;-144.30;32.75;82791.22;5112831;27;20234;-51
2023/06/09 09:13:15;;;;;;;5.07;4.78;;;;;;;-144.30;32.42;82805.13;5112850;28;20608;-51
2023/06/09 09:15:48;;;;;;;7.93;5.30;;;;;;;-144.30;32.91;82860.75;5112487;28;20218;-52
2023/06/09 09:18:16;;;;;;;10.55;6.93;;;;;;;-144.30;33.20;82807.13;5112655;27;20225;-55
2023/06/09 09:20:44;;;;;;;5.45;4.85;;;;;;;-144.30;32.93;82743.56;5112543;28;20237;-51
2023/06/09 09:23:11;;;;;;;5.93;5.13;;;;;;;-144.30;32.86;82781.28;5124178;27;20687;-52
2023/06/09 09:25:40;;;;;;;7.93;5.07;;;;;;;-144.30;32.44;82777.31;5133214;27;20194;-52
2023/06/09 09:28:08;;;;;;;7.18;5.13;;;;;;;-144.30;32.49;82745.53;5133630;27;20667;-54
2023/06/09 09:30:45;;;;;;;6.85;5.53;;;;;;;-144.30;32.24;82715.75;5133359;27;20274;-55
2023/06/09 09:33:13;;;;;;;9.00;5.18;;;;;;;-144.30;32.25;82763.41;5133770;27;20205;-55
2023/06/09 09:35:44;;;;;;;6.90;5.18;;;;;;;-144.30;32.27;82723.69;5133655;27;20186;-55
2023/06/09 09:38:17;;;;;;;7.60;5.47;;;;;;;-144.30;32.14;82711.78;5133461;27;20698;-55
2023/06/09 09:40:50;;;;;;;5.40;5.05;;;;;;;-144.30;31.98;82666.09;5133395;27;20197;-55
2023/06/09 09:43:18;;;;;;;10.23;5.68;;;;;;;-144.30;32.29;82777.31;5126361;27;20252;-55
2023/06/09 09:45:46;;;;;;;7.70;6.03;;;;;;;-144.30;33.35;83035.56;5131966;27;20229;-55
2023/06/09 09:48:14;;;;;;;13.70;7.00;;;;;;;-144.30;33.43;83011.72;5132446;27;20235;-51
2023/06/09 09:50:43;;;;;;;7.70;6.30;;;;;;;-144.30;33.46;82972.00;5132488;27;20218;-55
2023/06/09 09:53:11;;;;;;;7.10;6.15;;;;;;;-144.30;33.15;82886.56;5132091;27;20225;-54
2023/06/09 09:55:41;;;;;;;9.75;7.55;;;;;;;-144.30;32.87;82803.16;5132177;27;20244;-55
2023/06/09 09:58:10;;;;;;;11.27;6.38;;;;;;;-144.30;32.90;82840.88;5132431;27;20721;-54
2023/06/09 10:00:42;;;;;;;7.53;5.90;;;;;;;-144.30;32.95;82842.88;5131841;27;20221;-54
2023/06/09 10:03:10;;;;;;;9.23;6.20;;;;;;;-144.30;32.73;82842.88;5131524;27;20236;-53
2023/06/09 10:05:40;;;;;;;7.45;6.03;;;;;;;-144.30;32.78;82745.53;5132421;27;20230;-51
2023/06/09 10:08:10;;;;;;;7.38;6.20;;;;;;;-144.30;33.33;82886.56;5130434;27;20224;-52
2023/06/09 10:10:39;;;;;;;7.05;6.15;;;;;;;-144.30;33.43;82882.59;5123078;27;20249;-51
2023/06/09 10:13:06;;;;;;;11.18;6.35;;;;;;;-144.30;33.38;82914.38;5131469;27;20469;-51
2023/06/09 10:15:35;;;;;;;8.25;5.97;;;;;;;-144.30;33.89;83001.78;5132158;27;20190;-51
2023/06/09 10:18:03;;;;;;;10.43;7.00;;;;;;;-144.30;34.18;83027.63;5132569;27;20285;-50
2023/06/09 10:20:31;;;;;;;11.57;6.15;;;;;;;-144.30;34.16;83019.69;5132483;27;20610;-52
2023/06/09 10:22:58;;;;;;;7.78;5.40;;;;;;;-144.30;34.48;83138.88;5132475;27;20316;-51
2023/06/09 10:25:25;;;;;;;6.10;5.47;;;;;;;-144.30;34.66;83091.19;5132701;27;20202;-52
2023/06/09 10:27:52;;;;;;;7.60;5.28;;;;;;;-144.30;34.84;83079.28;5132493;27;20717;-53
2023/06/09 10:30:21;;;;;;;8.82;5.53;;;;;;;-144.30;34.96;83134.91;5132351;27;20657;-52
2023/06/09 10:32:57;;;;;;;6.10;5.60;;;;;;;-144.30;35.23;83210.38;5132011;27;20699;-55
2023/06/09 10:35:28;;;;;;;7.72;6.15;;;;;;;-144.30;35.57;83240.19;5132311;27;20280;-54
2023/06/09 10:37:56;;;;;;;10.40;5.85;;;;;;;-144.30;35.69;83202.44;5132349;27;20259;-55
2023/06/09 10:40:35;;;;;;;9.20;5.45;;;;;;;-144.30;35.88;83446.81;5132036;27;20225;-55
2023/06/09 10:43:20;;;;;;;6.30;5.47;;;;;;;-144.30;36.10;83222.31;5132041;27;20218;-56
2023/06/09 10:45:51;;;;;;;7.43;5.43;;;;;;;-144.30;36.13;83311.72;5131991;27;20197;-55
2023/06/09 10:48:44;;;;;;;8.45;5.57;;;;;;;-144.30;36.58;83345.50;5131835;27;20234;-56
2023/06/09 10:51:40;;;;;;;7.03;5.22;;;;;;;-144.30;36.64;83329.59;5128685;27;20190;-56
2023/06/09 10:54:26;;;;;;;5.97;5.22;;;;;;;-144.30;36.47;83335.56;5131304;27;20202;-54
2023/06/09 10:56:55;;;;;;;8.38;5.40;;;;;;;-144.30;36.48;83309.72;5131639;27;20186;-55
2023/06/09 11:00:11;;;;;;;8.52;4.70;;;;;;;-144.30;36.23;83240.19;5131818;27;20197;-55
2023/06/09 11:02:38;;;;;;;8.90;4.72;;;;;;;-144.30;36.04;83305.75;5131779;27;20258;-55
2023/06/09 11:05:07;;;;;;;5.03;4.63;;;;;;;-144.30;36.60;83325.63;5131956;27;20194;-55
2023/06/09 11:07:41;;;;;;;6.80;5.10;;;;;;;-144.30;36.26;83305.75;5131730;27;20562;-55
2023/06/09 11:10:38;;;;;;;8.25;5.85;;;;;;;-144.30;36.53;83164.69;5131759;27;20671;-55
2023/06/09 11:13:37;;;;;;;8.07;5.25;;;;;;;-144.30;36.58;83411.06;5131350;27;20194;-55
2023/06/09 11:16:04;;;;;;;5.93;5.40;;;;;;;-144.30;36.75;83405.09;5129577;27;20190;-52
2023/06/09 11:18:31;;;;;;;7.07;4.95;;;;;;;-144.30;36.53;83401.13;5131473;27;20194;-52
2023/06/09 11:21:21;;;;;;;5.50;5.15;;;;;;;-144.30;37.05;83393.16;5131316;27;20194;-52
2023/06/09 11:24:01;;;;;;;5.28;4.88;;;;;;;-144.30;37.04;83377.28;5131472;27;20235;-55
2023/06/09 11:26:30;;;;;;;5.32;4.88;;;;;;;-144.30;36.76;83357.41;5131301;27;20201;-56